Time;durP1;ratioP1;P1;durP2;ratioP2;P2;SDS_P1;SDS_P2;PMS_P1;PMS_P2;Temp;Humidity;BMP_temperature;BMP_pressure;BME280_temperature;BME280_humidity;BME280_pressure;Samples;Min_cycle;Max_cycle;Signal;HPM_P1;HPM_P2
2022/10/24 00:00:59;;;;;;;8.80;1.55;;;;;;;11.94;100.00;100292.81;5055234;28;20028;-75
2022/10/24 00:03:25;;;;;;;4.93;2.05;;;;;;;12.01;100.00;100287.69;5054541;28;20112;-75
2022/10/24 00:05:50;;;;;;;6.85;2.15;;;;;;;12.08;100.00;100294.88;5055240;28;20067;-75
2022/10/24 00:08:16;;;;;;;5.25;1.80;;;;;;;12.21;100.00;100289.09;5054483;28;20033;-75
2022/10/24 00:10:44;;;;;;;6.10;2.28;;;;;;;12.29;100.00;100291.75;5055193;28;20485;-75
2022/10/24 00:13:11;;;;;;;7.78;2.13;;;;;;;12.40;100.00;100293.28;5054264;28;20029;-75
2022/10/24 00:18:58;;;;;;;4.90;1.67;;;;;;;12.68;100.00;100277.78;5262909;22;20084;-77
2022/10/24 00:21:23;;;;;;;5.53;2.00;;;;;;;12.75;100.00;100279.78;5054353;28;20489;-77
2022/10/24 00:23:48;;;;;;;3.92;2.08;;;;;;;12.79;100.00;100273.94;5036003;28;20163;-76
2022/10/24 00:26:15;;;;;;;6.88;2.13;;;;;;;12.84;100.00;100265.47;5054070;28;20037;-76
2022/10/24 00:28:40;;;;;;;9.15;2.60;;;;;;;12.92;100.00;100281.47;5052056;28;20424;-76
2022/10/24 00:31:11;;;;;;;9.20;2.17;;;;;;;13.02;100.00;100266.09;5052918;28;20040;-76
2022/10/24 00:33:36;;;;;;;6.78;2.30;;;;;;;13.05;100.00;100259.59;5054392;28;20029;-76
2022/10/24 00:36:02;;;;;;;5.28;2.08;;;;;;;13.15;100.00;100262.91;5055109;28;20040;-76
2022/10/24 00:38:27;;;;;;;7.78;2.40;;;;;;;13.23;100.00;100259.41;5054243;28;20430;-78
2022/10/24 00:40:53;;;;;;;7.15;1.73;;;;;;;13.29;100.00;100266.72;5054785;28;20040;-76
2022/10/24 00:43:22;;;;;;;8.35;2.30;;;;;;;13.39;100.00;100258.53;5054357;28;20063;-75
2022/10/24 00:45:53;;;;;;;4.22;2.17;;;;;;;13.43;100.00;100251.03;5054097;28;20064;-76
2022/10/24 00:48:22;;;;;;;8.85;2.05;;;;;;;13.46;100.00;100248.00;5054598;28;20048;-76
2022/10/24 00:50:51;;;;;;;9.65;2.20;;;;;;;13.47;100.00;100249.69;5036043;28;20040;-76
2022/10/24 00:53:18;;;;;;;5.65;2.20;;;;;;;13.50;100.00;100252.81;5054292;28;20029;-77
2022/10/24 00:55:46;;;;;;;5.75;2.08;;;;;;;13.50;100.00;100241.31;5053989;28;20112;-76
2022/10/24 00:58:13;;;;;;;6.20;2.17;;;;;;;13.48;100.00;100246.84;5054297;28;20025;-76
2022/10/24 01:00:39;;;;;;;6.60;2.05;;;;;;;13.58;100.00;100241.25;5053740;28;20025;-76
2022/10/24 01:03:04;;;;;;;9.02;2.17;;;;;;;13.56;100.00;100232.59;5054316;28;20037;-76
2022/10/24 01:05:52;;;;;;;6.97;2.00;;;;;;;13.58;100.00;100234.09;5054066;28;20040;-77
2022/10/24 01:08:46;;;;;;;10.48;2.15;;;;;;;13.58;100.00;100236.78;5040609;28;20045;-76
2022/10/24 01:11:20;;;;;;;8.23;2.08;;;;;;;13.54;100.00;100226.56;5053983;28;20033;-76
2022/10/24 01:14:21;;;;;;;7.28;2.00;;;;;;;13.51;100.00;100225.09;5053302;28;20542;-76
2022/10/24 01:17:01;;;;;;;3.75;1.60;;;;;;;13.49;100.00;100234.28;4972356;28;20039;-76
2022/10/24 01:19:35;;;;;;;7.60;2.25;;;;;;;13.52;100.00;100224.06;5044803;28;20045;-76
2022/10/24 01:22:15;;;;;;;6.43;1.90;;;;;;;13.55;100.00;100228.25;5053480;28;20037;-76
2022/10/24 01:24:53;;;;;;;10.25;1.67;;;;;;;13.57;100.00;100220.91;5053110;28;20029;-77
2022/10/24 01:27:48;;;;;;;7.18;1.70;;;;;;;13.68;100.00;100223.19;5053678;28;20029;-77
2022/10/24 01:30:16;;;;;;;5.63;1.83;;;;;;;13.75;100.00;100210.78;5053764;28;20145;-77
2022/10/24 01:33:05;;;;;;;8.63;1.63;;;;;;;13.81;100.00;100213.75;5053484;28;20036;-77
2022/10/24 01:35:41;;;;;;;6.40;1.60;;;;;;;13.87;100.00;100207.72;5053737;28;20118;-77
2022/10/24 01:38:29;;;;;;;7.22;2.60;;;;;;;13.99;100.00;100213.47;5053549;28;20031;-76
2022/10/24 01:41:03;;;;;;;7.15;1.63;;;;;;;14.15;100.00;100201.84;5053110;28;20545;-75
2022/10/24 01:43:54;;;;;;;19.52;1.60;;;;;;;14.04;100.00;100198.56;5053039;28;20036;-76
2022/10/24 01:46:25;;;;;;;5.90;2.03;;;;;;;14.04;100.00;100192.41;5044018;28;20432;-75
2022/10/24 01:49:06;;;;;;;9.07;1.70;;;;;;;13.93;100.00;100189.13;5052810;28;20110;-75
2022/10/24 01:51:33;;;;;;;6.18;1.60;;;;;;;13.91;100.00;100198.31;5053496;28;20033;-75
2022/10/24 01:54:00;;;;;;;8.35;1.70;;;;;;;13.89;100.00;100192.34;5052251;28;20147;-78
2022/10/24 01:56:26;;;;;;;10.85;2.15;;;;;;;13.85;100.00;100191.00;5053186;28;20033;-75
2022/10/24 01:58:51;;;;;;;4.47;1.40;;;;;;;13.77;100.00;100193.75;5052649;28;20495;-76
2022/10/24 02:01:22;;;;;;;16.00;1.70;;;;;;;13.71;100.00;100184.59;5035462;28;20075;-74
2022/10/24 02:04:02;;;;;;;8.82;1.55;;;;;;;13.65;100.00;100194.13;5052952;28;20067;-75
2022/10/24 02:06:36;;;;;;;9.40;1.67;;;;;;;13.58;100.00;100188.66;5053199;28;20107;-75
2022/10/24 02:09:08;;;;;;;6.35;1.83;;;;;;;13.64;100.00;100183.63;5052741;28;20025;-75
2022/10/24 02:11:34;;;;;;;5.28;1.50;;;;;;;13.65;100.00;100180.75;5052649;28;20036;-75
2022/10/24 02:14:29;;;;;;;3.80;1.30;;;;;;;13.77;100.00;100183.06;5052587;28;20029;-75
2022/10/24 02:16:56;;;;;;;5.63;1.40;;;;;;;13.81;100.00;100179.00;5049930;28;20037;-74
2022/10/24 02:19:21;;;;;;;7.70;1.80;;;;;;;13.79;100.00;100186.38;5053487;28;20056;-75
2022/10/24 02:22:11;;;;;;;5.55;1.73;;;;;;;13.76;100.00;100184.88;5051987;28;20040;-75
2022/10/24 02:25:06;;;;;;;4.70;1.60;;;;;;;13.84;100.00;100184.84;5052876;28;20469;-75
2022/10/24 02:27:39;;;;;;;8.70;1.50;;;;;;;13.96;100.00;100179.06;5052647;28;20029;-74
2022/10/24 02:30:17;;;;;;;4.85;1.40;;;;;;;13.92;100.00;100175.94;5052236;28;20032;-76
2022/10/24 02:32:48;;;;;;;5.28;1.80;;;;;;;13.96;100.00;100184.41;5052149;28;20033;-73
2022/10/24 02:35:16;;;;;;;5.97;1.60;;;;;;;14.02;100.00;100179.22;5052805;28;20029;-75
2022/10/24 02:37:47;;;;;;;6.63;1.60;;;;;;;14.01;100.00;100174.03;5051807;28;20105;-76
2022/10/24 02:40:16;;;;;;;3.78;1.38;;;;;;;14.04;100.00;100179.84;5052603;28;20071;-73
2022/10/24 02:42:43;;;;;;;6.85;1.50;;;;;;;14.11;100.00;100174.63;5052213;28;20025;-75
2022/10/24 02:45:11;;;;;;;10.00;1.77;;;;;;;14.13;100.00;100182.50;5051998;28;20032;-75
2022/10/24 02:47:39;;;;;;;6.93;1.92;;;;;;;14.11;100.00;100177.31;5034475;28;20037;-74
2022/10/24 02:50:05;;;;;;;6.75;1.70;;;;;;;14.12;100.00;100176.28;5034480;28;20028;-75
2022/10/24 02:52:31;;;;;;;12.35;1.60;;;;;;;14.06;100.00;100183.19;5052547;28;20090;-75
2022/10/24 02:54:57;;;;;;;7.32;1.77;;;;;;;14.07;100.00;100173.31;5051991;28;20107;-75
2022/10/24 02:57:23;;;;;;;5.40;1.50;;;;;;;14.04;100.00;100177.19;5051966;28;20112;-75
2022/10/24 02:59:49;;;;;;;11.05;1.67;;;;;;;14.02;100.00;100165.84;5051793;28;20040;-75
2022/10/24 03:02:14;;;;;;;3.25;1.40;;;;;;;13.99;100.00;100173.38;5051934;28;20393;-75
2022/10/24 03:04:40;;;;;;;10.10;1.90;;;;;;;14.02;100.00;100159.66;5052363;28;20462;-75
2022/10/24 03:07:06;;;;;;;5.95;1.40;;;;;;;13.95;100.00;100159.53;5034058;28;20033;-74
2022/10/24 03:09:32;;;;;;;5.47;1.63;;;;;;;13.91;100.00;100166.25;5052084;28;20033;-75
2022/10/24 03:11:57;;;;;;;4.53;1.60;;;;;;;13.93;100.00;100158.88;5051684;28;20473;-76
2022/10/24 03:14:23;;;;;;;8.88;1.50;;;;;;;13.91;100.00;100163.56;5052137;28;20111;-75
2022/10/24 03:16:48;;;;;;;9.90;1.50;;;;;;;13.85;100.00;100158.94;5051712;28;20029;-75
2022/10/24 03:19:13;;;;;;;11.25;1.45;;;;;;;13.84;100.00;100162.59;5051918;28;20136;-74
2022/10/24 03:21:39;;;;;;;10.13;1.88;;;;;;;13.86;100.00;100148.06;5051731;28;20145;-75
2022/10/24 03:24:05;;;;;;;4.28;1.20;;;;;;;13.85;100.00;100153.56;5051562;28;20029;-75
2022/10/24 03:26:30;;;;;;;6.40;1.65;;;;;;;13.79;100.00;100148.94;5051772;28;20025;-75
2022/10/24 03:28:55;;;;;;;7.95;2.00;;;;;;;13.87;100.00;100154.25;5051549;28;20039;-75
2022/10/24 03:31:21;;;;;;;5.95;1.30;;;;;;;13.77;100.00;100159.81;5051979;28;20033;-74
2022/10/24 03:33:47;;;;;;;7.30;1.80;;;;;;;13.71;100.00;100160.53;5052103;28;20032;-75
2022/10/24 03:36:12;;;;;;;6.30;1.77;;;;;;;13.62;100.00;100150.88;5052093;28;20087;-75
2022/10/24 03:38:37;;;;;;;15.30;1.63;;;;;;;13.58;100.00;100159.25;5051716;28;20095;-74
2022/10/24 03:41:04;;;;;;;12.55;2.72;;;;;;;13.59;100.00;100162.75;5051231;28;20063;-74
2022/10/24 03:43:29;;;;;;;8.00;1.52;;;;;;;13.66;100.00;100171.75;5051778;28;20044;-75
2022/10/24 03:45:54;;;;;;;6.25;1.55;;;;;;;13.72;100.00;100162.19;5051363;28;20029;-74
2022/10/24 03:48:20;;;;;;;11.48;1.90;;;;;;;13.77;100.00;100154.47;5052254;28;20033;-74
2022/10/24 03:50:45;;;;;;;8.65;1.58;;;;;;;13.82;100.00;100151.25;5055550;28;20037;-74
2022/10/24 03:53:10;;;;;;;9.25;1.88;;;;;;;13.82;100.00;100157.44;5054691;28;20027;-75
2022/10/24 03:55:36;;;;;;;8.02;1.48;;;;;;;13.95;100.00;100154.19;5055137;28;20029;-74
2022/10/24 03:58:01;;;;;;;7.40;1.48;;;;;;;13.96;100.00;100155.84;5054897;28;20462;-74
2022/10/24 04:00:27;;;;;;;8.27;2.15;;;;;;;13.98;100.00;100153.00;5055332;28;20155;-74
2022/10/24 04:02:53;;;;;;;6.93;1.58;;;;;;;14.00;100.00;100150.97;5054887;28;20055;-74
2022/10/24 04:05:19;;;;;;;5.47;1.50;;;;;;;14.03;100.00;100153.28;5055199;28;20107;-74
2022/10/24 04:07:44;;;;;;;10.52;1.70;;;;;;;14.09;100.00;100149.88;5055234;28;20432;-74
2022/10/24 04:10:10;;;;;;;10.32;1.33;;;;;;;14.05;100.00;100149.44;5054329;28;20037;-75
2022/10/24 04:12:35;;;;;;;5.80;1.73;;;;;;;14.05;100.00;100141.41;5053864;28;20036;-75
2022/10/24 04:15:01;;;;;;;7.00;1.92;;;;;;;14.05;100.00;100146.75;5054829;28;20561;-75
2022/10/24 04:17:26;;;;;;;6.53;1.50;;;;;;;14.05;100.00;100149.44;5054932;28;20477;-74
2022/10/24 04:19:52;;;;;;;9.73;2.15;;;;;;;14.11;100.00;100148.72;5055059;28;20175;-74
2022/10/24 04:22:17;;;;;;;9.63;1.42;;;;;;;14.10;100.00;100149.72;5036550;28;20041;-75
2022/10/24 04:24:43;;;;;;;9.48;2.42;;;;;;;14.13;100.00;100145.03;5054856;28;20037;-75
2022/10/24 04:27:08;;;;;;;8.50;1.73;;;;;;;14.11;100.00;100153.25;5054510;28;20377;-75
2022/10/24 04:29:34;;;;;;;7.47;2.20;;;;;;;14.13;100.00;100150.38;5054799;28;20461;-75
2022/10/24 04:32:00;;;;;;;11.60;1.90;;;;;;;14.09;100.00;100147.22;5036155;28;20493;-76
2022/10/24 04:34:26;;;;;;;10.18;1.60;;;;;;;14.08;100.00;100146.41;5054656;28;20083;-75
2022/10/24 04:36:51;;;;;;;12.40;1.52;;;;;;;14.07;100.00;100151.94;5054591;28;20474;-75
2022/10/24 04:39:18;;;;;;;6.95;1.63;;;;;;;14.17;100.00;100146.34;5036135;28;20060;-74
2022/10/24 04:41:44;;;;;;;9.10;1.58;;;;;;;14.19;100.00;100141.63;5054466;28;20091;-76
2022/10/24 04:44:09;;;;;;;8.90;1.40;;;;;;;14.18;100.00;100126.59;5054189;28;20474;-76
2022/10/24 04:46:34;;;;;;;10.07;1.73;;;;;;;14.23;100.00;100130.41;5036786;28;20029;-75
2022/10/24 04:49:00;;;;;;;8.95;1.90;;;;;;;14.25;100.00;100123.00;5054030;28;20028;-75
2022/10/24 04:51:25;;;;;;;5.82;1.65;;;;;;;14.25;100.00;100128.34;5054467;28;20416;-76
2022/10/24 04:53:51;;;;;;;13.30;2.08;;;;;;;14.27;100.00;100110.28;5054513;28;20061;-75
2022/10/24 04:56:17;;;;;;;9.73;2.28;;;;;;;14.28;100.00;100133.34;5054132;28;20433;-77
2022/10/24 04:58:43;;;;;;;11.10;1.55;;;;;;;14.28;100.00;100119.97;5054627;28;20021;-76
2022/10/24 05:01:08;;;;;;;8.27;1.67;;;;;;;14.29;100.00;100118.97;5052718;28;20043;-75
2022/10/24 05:03:33;;;;;;;8.82;1.85;;;;;;;14.33;100.00;100127.47;5053977;28;20029;-76
2022/10/24 05:05:59;;;;;;;8.82;2.03;;;;;;;14.40;100.00;100111.50;5053796;28;20044;-76
2022/10/24 05:08:24;;;;;;;7.40;1.58;;;;;;;14.45;100.00;100135.88;5053802;28;20466;-75
2022/10/24 05:10:49;;;;;;;12.50;1.95;;;;;;;14.34;100.00;100126.44;5054110;28;20422;-75
2022/10/24 05:13:15;;;;;;;7.18;1.30;;;;;;;14.26;100.00;100123.84;5053652;28;20529;-76
2022/10/24 05:15:40;;;;;;;7.28;1.45;;;;;;;14.26;100.00;100119.31;5036014;28;20076;-75
2022/10/24 05:18:06;;;;;;;5.68;1.55;;;;;;;14.21;100.00;100128.91;5053625;28;20032;-76
2022/10/24 05:20:31;;;;;;;14.27;2.03;;;;;;;14.15;100.00;100126.94;5054060;28;20049;-74
2022/10/24 05:22:57;;;;;;;9.80;1.77;;;;;;;14.08;100.00;100130.34;5035979;28;20033;-74
2022/10/24 05:25:22;;;;;;;12.38;1.60;;;;;;;14.03;100.00;100129.22;5053404;28;20090;-73
2022/10/24 05:27:48;;;;;;;8.32;1.58;;;;;;;13.96;100.00;100134.47;5053767;28;20037;-73
2022/10/24 05:30:14;;;;;;;6.90;1.83;;;;;;;13.86;100.00;100134.69;5035654;28;20135;-74
2022/10/24 05:32:39;;;;;;;15.93;1.88;;;;;;;13.90;100.00;100148.53;5053329;28;20057;-73
2022/10/24 05:35:05;;;;;;;9.82;2.33;;;;;;;13.92;100.00;100133.16;5053107;28;20035;-74
2022/10/24 05:37:30;;;;;;;12.70;1.52;;;;;;;13.98;100.00;100159.16;5053415;28;20087;-74
2022/10/24 05:39:56;;;;;;;5.80;2.03;;;;;;;14.00;100.00;100137.59;5053435;28;20111;-74
2022/10/24 05:42:21;;;;;;;8.38;1.75;;;;;;;13.98;100.00;100143.13;5052721;28;20120;-75
2022/10/24 05:44:46;;;;;;;7.05;1.48;;;;;;;13.95;100.00;100140.00;5035373;28;20395;-74
2022/10/24 05:47:12;;;;;;;6.53;1.30;;;;;;;13.97;100.00;100135.28;5052856;28;20408;-74
2022/10/24 05:49:37;;;;;;;8.30;1.50;;;;;;;13.97;100.00;100133.44;5035347;28;20075;-74
2022/10/24 05:52:03;;;;;;;5.93;1.52;;;;;;;14.06;100.00;100139.56;5053225;28;20040;-75
2022/10/24 05:54:28;;;;;;;8.48;1.58;;;;;;;14.11;100.00;100138.00;5052678;28;20465;-74
2022/10/24 05:56:54;;;;;;;12.10;1.85;;;;;;;14.13;100.00;100140.50;5052710;28;20071;-74
2022/10/24 05:59:19;;;;;;;12.07;1.73;;;;;;;14.11;100.00;100137.19;5034700;28;20068;-73
2022/10/24 06:01:44;;;;;;;14.15;2.78;;;;;;;14.15;100.00;100140.31;5052947;28;20033;-74
2022/10/24 06:04:10;;;;;;;9.77;1.55;;;;;;;14.13;100.00;100140.50;5052625;28;20465;-74
2022/10/24 06:06:43;;;;;;;6.55;1.50;;;;;;;14.10;100.00;100133.66;5053137;28;20322;-74
2022/10/24 06:09:10;;;;;;;12.25;1.33;;;;;;;14.16;100.00;100150.84;5052639;28;20056;-74
2022/10/24 06:11:36;;;;;;;11.88;2.10;;;;;;;14.16;100.00;100144.69;5052274;28;20434;-74
2022/10/24 06:14:02;;;;;;;10.15;2.10;;;;;;;14.19;100.00;100152.34;5052447;28;20064;-74
2022/10/24 06:16:29;;;;;;;9.75;1.75;;;;;;;14.18;100.00;100164.03;5052054;28;20439;-74
2022/10/24 06:18:56;;;;;;;7.20;1.40;;;;;;;14.20;100.00;100149.47;5052288;28;20052;-73
2022/10/24 06:21:22;;;;;;;4.95;1.30;;;;;;;14.21;100.00;100169.88;5052226;28;20069;-74
2022/10/24 06:23:47;;;;;;;7.88;1.85;;;;;;;14.17;100.00;100186.47;5052638;28;20033;-74
2022/10/24 06:26:13;;;;;;;7.35;1.55;;;;;;;13.89;100.00;100192.34;5052380;28;20047;-73
2022/10/24 06:28:40;;;;;;;8.90;1.65;;;;;;;13.65;100.00;100206.66;5052501;28;20033;-74
2022/10/24 06:31:06;;;;;;;8.90;1.55;;;;;;;13.44;100.00;100213.44;5052539;28;20029;-74
2022/10/24 06:33:32;;;;;;;8.18;1.67;;;;;;;13.23;100.00;100230.84;5052217;28;20032;-75
2022/10/24 06:36:04;;;;;;;6.47;1.15;;;;;;;13.01;100.00;100216.34;5052239;28;20025;-75
2022/10/24 06:38:30;;;;;;;9.40;1.58;;;;;;;12.82;100.00;100230.94;5052140;28;20033;-76
2022/10/24 06:40:55;;;;;;;10.27;1.52;;;;;;;12.66;100.00;100225.59;5052764;28;20158;-76
2022/10/24 06:43:20;;;;;;;6.93;1.80;;;;;;;12.57;100.00;100226.59;5052077;28;20445;-76
2022/10/24 06:45:46;;;;;;;10.07;2.33;;;;;;;12.49;100.00;100228.25;5052376;28;20033;-76
2022/10/24 06:48:11;;;;;;;8.35;2.08;;;;;;;12.46;100.00;100219.75;5052095;28;20382;-76
2022/10/24 06:50:39;;;;;;;9.95;1.67;;;;;;;12.47;100.00;100232.09;5052276;28;20051;-76
2022/10/24 06:53:05;;;;;;;5.28;1.35;;;;;;;12.50;100.00;100242.44;5052456;28;20083;-76
2022/10/24 06:55:31;;;;;;;6.50;1.30;;;;;;;12.51;100.00;100247.59;5051942;28;20040;-76
2022/10/24 06:57:56;;;;;;;8.15;1.55;;;;;;;12.49;100.00;100241.59;5052179;28;20033;-76
2022/10/24 07:00:21;;;;;;;10.52;1.55;;;;;;;12.49;100.00;100267.44;5051858;28;20033;-76
2022/10/24 07:02:47;;;;;;;8.30;1.55;;;;;;;12.42;100.00;100280.63;5051779;28;20037;-75
2022/10/24 07:05:13;;;;;;;9.10;1.58;;;;;;;12.42;100.00;100277.09;5051863;28;20071;-77
2022/10/24 07:07:40;;;;;;;8.73;1.67;;;;;;;12.41;100.00;100292.28;5052152;28;20150;-75
2022/10/24 07:10:06;;;;;;;5.13;1.30;;;;;;;12.39;100.00;100280.09;5051862;28;20547;-75
2022/10/24 07:12:31;;;;;;;8.10;1.58;;;;;;;12.42;100.00;100274.44;5051393;28;20516;-74
2022/10/24 07:14:56;;;;;;;8.43;1.35;;;;;;;12.47;100.00;100310.31;5052090;28;20033;-75
2022/10/24 07:17:22;;;;;;;7.43;1.70;;;;;;;12.64;100.00;100292.47;5051375;28;20062;-76
2022/10/24 07:19:52;;;;;;;6.38;1.60;;;;;;;12.80;100.00;100298.81;5051994;28;20072;-77
2022/10/24 07:22:18;;;;;;;11.10;1.73;;;;;;;12.82;100.00;100313.69;5051329;28;20377;-75
2022/10/24 07:24:44;;;;;;;9.63;1.73;;;;;;;12.81;100.00;100312.00;5054821;28;20036;-75
2022/10/24 07:27:10;;;;;;;7.55;1.48;;;;;;;12.85;100.00;100317.84;5055765;28;20029;-76
2022/10/24 07:29:38;;;;;;;11.52;1.52;;;;;;;12.86;100.00;100316.84;5055234;28;20083;-75
2022/10/24 07:32:03;;;;;;;9.07;2.03;;;;;;;12.92;100.00;100321.50;5055883;28;20509;-74
2022/10/24 07:34:28;;;;;;;6.80;1.38;;;;;;;12.99;100.00;100325.19;5055449;28;20029;-74
2022/10/24 07:36:54;;;;;;;8.43;1.90;;;;;;;13.11;100.00;100325.69;5055643;28;20393;-75
2022/10/24 07:39:19;;;;;;;7.45;1.73;;;;;;;13.25;100.00;100316.16;5055452;28;20492;-76
2022/10/24 07:41:44;;;;;;;5.20;1.42;;;;;;;13.38;100.00;100321.00;5055386;28;20120;-78
2022/10/24 07:44:10;;;;;;;8.93;1.58;;;;;;;13.53;100.00;100327.31;5055703;28;20029;-76
2022/10/24 07:46:36;;;;;;;7.10;1.65;;;;;;;13.68;100.00;100338.13;5055003;28;20037;-76
2022/10/24 07:49:01;;;;;;;6.20;1.33;;;;;;;13.72;100.00;100338.66;5055766;28;20465;-76
2022/10/24 07:51:28;;;;;;;7.55;1.63;;;;;;;13.72;100.00;100336.78;5054861;28;20044;-77
2022/10/24 07:53:55;;;;;;;7.65;1.52;;;;;;;13.75;100.00;100351.66;5055270;28;20197;-77
2022/10/24 07:56:21;;;;;;;6.43;1.80;;;;;;;13.84;100.00;100349.78;5055145;28;20077;-78
2022/10/24 07:58:46;;;;;;;11.75;1.40;;;;;;;13.81;100.00;100350.13;5055291;28;20025;-76
2022/10/24 08:01:14;;;;;;;8.07;1.70;;;;;;;13.74;100.00;100358.84;5055463;28;20497;-75
2022/10/24 08:03:40;;;;;;;6.55;1.30;;;;;;;13.71;100.00;100361.84;5054804;28;20115;-76
2022/10/24 08:06:14;;;;;;;4.38;1.40;;;;;;;13.72;100.00;100370.72;5055295;28;20118;-75
2022/10/24 08:08:40;;;;;;;3.45;1.20;;;;;;;13.71;100.00;100377.88;5054699;28;20155;-76
2022/10/24 08:11:17;;;;;;;9.40;1.65;;;;;;;13.73;100.00;100383.06;5055234;28;20044;-77
2022/10/24 08:13:42;;;;;;;6.93;1.55;;;;;;;13.73;100.00;100380.38;5054957;28;20029;-77
2022/10/24 08:16:10;;;;;;;4.90;1.40;;;;;;;13.68;100.00;100398.78;5055192;28;20032;-77
2022/10/24 08:18:37;;;;;;;11.10;1.70;;;;;;;13.62;100.00;100402.16;5054658;28;20033;-74
2022/10/24 08:21:05;;;;;;;14.10;1.70;;;;;;;13.60;100.00;100396.13;5055238;28;20053;-75
2022/10/24 08:23:33;;;;;;;7.63;1.92;;;;;;;13.52;100.00;100405.81;5054583;28;20040;-77
2022/10/24 08:25:58;;;;;;;8.45;1.55;;;;;;;13.40;100.00;100397.34;5055044;28;20102;-76
2022/10/24 08:28:24;;;;;;;9.63;1.50;;;;;;;13.34;100.00;100406.00;5054342;28;20033;-77
2022/10/24 08:30:57;;;;;;;5.72;1.45;;;;;;;13.33;100.00;100403.47;5054938;28;20477;-76
2022/10/24 08:33:23;;;;;;;9.07;1.55;;;;;;;13.29;100.00;100415.50;5054496;28;20108;-78
2022/10/24 08:35:48;;;;;;;8.88;2.13;;;;;;;13.19;100.00;100415.66;5054614;28;20441;-77
2022/10/24 08:38:13;;;;;;;8.52;1.50;;;;;;;13.06;100.00;100418.81;5055031;28;20120;-77
2022/10/24 08:40:39;;;;;;;6.47;1.52;;;;;;;12.96;100.00;100415.50;5054267;28;20067;-77
2022/10/24 08:43:04;;;;;;;10.70;1.77;;;;;;;12.90;100.00;100425.00;5054201;28;20119;-77
2022/10/24 08:46:04;;;;;;;9.75;1.63;;;;;;;12.84;100.00;100433.66;5054178;28;20040;-76
2022/10/24 08:48:35;;;;;;;6.53;1.77;;;;;;;12.97;100.00;100423.34;5054224;28;20017;-77
2022/10/24 08:51:20;;;;;;;9.05;1.70;;;;;;;13.21;100.00;100421.66;5054140;28;20450;-77
2022/10/24 08:53:47;;;;;;;7.70;1.70;;;;;;;13.42;100.00;100434.56;5053775;28;20033;-76
2022/10/24 08:56:12;;;;;;;15.18;1.75;;;;;;;13.43;100.00;100446.91;5054447;28;20029;-76
2022/10/24 08:58:43;;;;;;;8.43;1.48;;;;;;;13.38;100.00;100438.59;5053950;28;20025;-76
2022/10/24 09:01:26;;;;;;;7.07;1.73;;;;;;;13.35;100.00;100446.94;5054388;28;20461;-76
2022/10/24 09:03:52;;;;;;;9.20;1.73;;;;;;;13.40;100.00;100452.59;5054815;28;20078;-77
2022/10/24 09:06:20;;;;;;;10.10;2.13;;;;;;;13.49;100.00;100459.59;5054103;28;20508;-78
2022/10/24 09:08:59;;;;;;;9.05;1.88;;;;;;;13.55;100.00;100450.94;5053688;28;20350;-76
2022/10/24 09:12:06;;;;;;;8.07;1.63;;;;;;;13.57;100.00;100464.16;5054209;28;20500;-76
2022/10/24 09:14:35;;;;;;;10.07;1.77;;;;;;;13.75;100.00;100462.09;5014240;28;20041;-76
2022/10/24 09:17:05;;;;;;;7.03;1.73;;;;;;;13.85;100.00;100461.09;5053748;28;20377;-77
2022/10/24 09:19:31;;;;;;;4.70;1.25;;;;;;;14.27;100.00;100473.34;5053391;28;20400;-77
2022/10/24 09:21:59;;;;;;;5.50;1.73;;;;;;;14.81;100.00;100478.84;5053861;28;20024;-76
2022/10/24 09:25:09;;;;;;;6.72;1.60;;;;;;;14.60;100.00;100474.06;5053810;28;20069;-76
2022/10/24 09:27:38;;;;;;;7.50;1.75;;;;;;;15.49;100.00;100473.69;4972191;28;20045;-77
2022/10/24 09:30:06;;;;;;;9.65;1.92;;;;;;;17.28;100.00;100480.91;4972823;28;20031;-76
2022/10/24 09:32:34;;;;;;;8.10;1.83;;;;;;;18.50;100.00;100476.22;5016169;28;20041;-76
2022/10/24 09:35:03;;;;;;;4.60;1.50;;;;;;;18.54;96.96;100466.72;5053595;28;20037;-76
2022/10/24 09:37:48;;;;;;;8.15;2.10;;;;;;;17.28;100.00;100484.41;5053250;28;20021;-76
2022/10/24 09:40:31;;;;;;;6.57;1.45;;;;;;;17.65;100.00;100484.34;5053561;28;20040;-75
2022/10/24 09:43:16;;;;;;;6.28;1.95;;;;;;;17.55;100.00;100502.66;5053703;28;20025;-76
2022/10/24 09:45:49;;;;;;;8.73;1.52;;;;;;;16.87;100.00;100509.19;5052885;28;20033;-76
2022/10/24 09:48:17;;;;;;;9.98;1.90;;;;;;;16.38;100.00;100523.19;5053198;28;20029;-77
2022/10/24 09:50:44;;;;;;;7.35;1.90;;;;;;;16.40;100.00;100508.56;5035152;28;20072;-76
2022/10/24 09:53:31;;;;;;;10.70;2.05;;;;;;;16.50;100.00;100513.66;5053158;28;20032;-76
2022/10/24 09:56:12;;;;;;;6.97;1.60;;;;;;;16.34;100.00;100519.22;5053284;28;20028;-76
2022/10/24 09:58:38;;;;;;;14.00;1.98;;;;;;;16.25;100.00;100518.47;5052935;28;20037;-76
2022/10/24 10:01:05;;;;;;;9.55;1.98;;;;;;;16.49;100.00;100521.91;5035142;28;20062;-77
2022/10/24 10:03:32;;;;;;;12.80;1.98;;;;;;;16.29;100.00;100543.94;5053055;28;20435;-75
2022/10/24 10:06:03;;;;;;;9.90;2.00;;;;;;;16.24;100.00;100538.25;5052910;28;20120;-75
2022/10/24 10:08:34;;;;;;;10.40;1.55;;;;;;;16.11;100.00;100535.38;5053093;28;20120;-75
2022/10/24 10:11:08;;;;;;;7.28;1.58;;;;;;;15.81;100.00;100551.44;5053082;28;20087;-76
2022/10/24 10:13:44;;;;;;;10.93;2.15;;;;;;;15.61;100.00;100535.78;5052537;28;20112;-76
2022/10/24 10:16:20;;;;;;;5.55;1.70;;;;;;;15.52;100.00;100543.06;5052892;28;20029;-75
2022/10/24 10:18:47;;;;;;;7.35;1.77;;;;;;;15.44;100.00;100556.53;5052286;28;20055;-77
2022/10/24 10:21:23;;;;;;;9.68;1.83;;;;;;;15.34;100.00;100567.47;5052766;28;20040;-76
2022/10/24 10:23:50;;;;;;;8.80;2.10;;;;;;;15.23;100.00;100570.56;5052309;28;20040;-76
2022/10/24 10:26:26;;;;;;;6.97;1.70;;;;;;;14.87;100.00;100560.34;5052391;28;20426;-76
2022/10/24 10:28:52;;;;;;;10.23;2.38;;;;;;;14.78;100.00;100575.63;5052273;28;20108;-77
2022/10/24 10:31:21;;;;;;;11.75;1.88;;;;;;;14.67;100.00;100583.19;5052740;28;20060;-76
2022/10/24 10:34:22;;;;;;;9.18;1.80;;;;;;;14.66;100.00;100589.53;5052144;28;20056;-76
2022/10/24 10:37:06;;;;;;;9.85;1.42;;;;;;;14.69;100.00;100599.91;5052214;28;20079;-76
2022/10/24 10:39:59;;;;;;;8.75;2.13;;;;;;;14.86;100.00;100595.34;5052538;28;20032;-76
2022/10/24 10:42:48;;;;;;;8.07;1.88;;;;;;;15.12;100.00;100600.41;5052141;28;20035;-75
2022/10/24 10:45:39;;;;;;;8.23;1.90;;;;;;;15.33;100.00;100611.38;5052663;28;20064;-76
2022/10/24 10:48:35;;;;;;;6.40;1.55;;;;;;;15.20;100.00;100604.91;5052390;28;20108;-76
2022/10/24 10:51:12;;;;;;;5.47;1.40;;;;;;;15.24;100.00;100612.44;5052023;28;20035;-77
2022/10/24 10:53:48;;;;;;;7.85;1.52;;;;;;;15.44;100.00;100618.19;5052446;28;20029;-77
2022/10/24 10:56:40;;;;;;;8.73;1.65;;;;;;;15.61;100.00;100618.06;5052314;28;20025;-77
2022/10/24 10:59:23;;;;;;;6.32;1.40;;;;;;;15.58;100.00;100618.44;5051232;28;20037;-76
2022/10/24 11:02:07;;;;;;;6.30;1.60;;;;;;;15.48;100.00;100618.66;5051959;28;20056;-76
2022/10/24 11:04:56;;;;;;;11.00;1.55;;;;;;;15.30;100.00;100606.38;5052404;28;20044;-76
2022/10/24 11:07:32;;;;;;;11.02;1.83;;;;;;;15.23;100.00;100617.97;5052139;28;20059;-77
2022/10/24 11:10:06;;;;;;;6.47;1.30;;;;;;;15.24;100.00;100625.84;5051874;28;20061;-76
2022/10/24 11:12:36;;;;;;;4.80;1.35;;;;;;;15.33;100.00;100635.50;5052297;28;20033;-76
2022/10/24 11:15:25;;;;;;;8.50;1.30;;;;;;;15.25;100.00;100634.69;5051645;28;20044;-78
2022/10/24 11:18:29;;;;;;;5.78;1.20;;;;;;;15.21;100.00;100625.34;5051730;28;20025;-77
2022/10/24 11:21:00;;;;;;;5.55;1.23;;;;;;;15.05;100.00;100629.75;5022159;28;20048;-76
2022/10/24 11:23:44;;;;;;;;;;;;;;;14.94;100.00;100635.47;5031854;28;20029;-77
2022/10/24 11:26:15;;;;;;;5.55;1.50;;;;;;;14.76;100.00;100644.59;5030975;28;19916;-77
2022/10/24 11:28:53;;;;;;;6.93;1.92;;;;;;;14.53;100.00;100641.75;5031356;28;20033;-77
2022/10/24 11:31:22;;;;;;;6.35;1.70;;;;;;;14.47;100.00;100650.47;5031329;28;20033;-77
2022/10/24 11:34:01;;;;;;;6.55;1.50;;;;;;;14.45;100.00;100647.09;5030853;28;20036;-77